Terminal Aerodrome Forecast
Issued by NWS Charleston, WV

Current Version | Previous Version | Graphics & Text | Print | Product List | Glossary On
Versions: 1 2 3 4 5 6 7 8 9 10 11 12 13 14 15 16 17 18 19 20 21 22 23
000
FTUS41 KRLX 301100 RRA
TAFCRW
TAF
KCRW 301147Z 3012/0112 00000KT P6SM BKN080
     FM301500 32004KT P6SM BKN050
     FM301800 30009G14KT 5SM SHRA VCTS BKN045CB
     FM010200 30006KT 5SM -SHRA BR OVC030
     FM010700 30006KT 4SM BR OVC012=

USA.gov is the U.S. government's official web portal to all federal, state and local government web resources and services.